createdAt,value
2023-04-05T00:04:50.628Z,100772.50
2023-04-05T00:09:52.336Z,100767.03
2023-04-05T00:14:53.807Z,100754.50
2023-04-05T00:19:57.274Z,100750.91
2023-04-05T00:24:58.835Z,100753.84
2023-04-05T00:30:00.980Z,100740.09
2023-04-05T00:35:02.375Z,100734.78
2023-04-05T00:40:04.851Z,100735.69
2023-04-05T00:45:06.736Z,100739.53
2023-04-05T00:50:09.086Z,100731.13
2023-04-05T00:55:10.589Z,100735.69
2023-04-05T01:00:12.301Z,100731.69
2023-04-05T01:05:33.593Z,100734.63
2023-04-05T01:10:39.939Z,100720.88
2023-04-05T01:15:41.573Z,100733.22
2023-04-05T01:20:54.250Z,100731.28
2023-04-05T01:25:59.921Z,100724.66
2023-04-05T01:31:13.002Z,100721.84
2023-04-05T01:36:27.902Z,100710.56
2023-04-05T01:41:29.298Z,100708.88
2023-04-05T01:46:30.793Z,100700.16
2023-04-05T01:51:33.291Z,100692.72
2023-04-05T01:56:34.817Z,100694.84
2023-04-05T02:01:36.471Z,100695.38
2023-04-05T02:06:37.885Z,100699.84
2023-04-05T02:11:39.272Z,100693.47
2023-04-05T02:16:40.761Z,100693.41
2023-04-05T02:21:42.274Z,100693.16
2023-04-05T02:26:43.669Z,100695.38
2023-04-05T02:31:45.086Z,100682.16
2023-04-05T02:36:47.163Z,100681.31
2023-04-05T02:41:48.568Z,100685.41
2023-04-05T02:46:49.939Z,100695.44
2023-04-05T02:51:51.819Z,100687.63
2023-04-05T02:56:54.627Z,100686.31
2023-04-05T03:01:56.019Z,100675.25
2023-04-05T03:06:57.401Z,100676.09
2023-04-05T03:12:03.436Z,100670.69
2023-04-05T03:17:04.962Z,100674.03
2023-04-05T03:22:07.475Z,100671.63
2023-04-05T03:27:08.945Z,100667.19
2023-04-05T03:32:11.787Z,100671.00
2023-04-05T03:37:13.206Z,100666.53
2023-04-05T03:42:15.928Z,100669.88
2023-04-05T03:47:17.450Z,100661.28
2023-04-05T03:52:18.832Z,100666.38
2023-04-05T03:57:21.418Z,100666.84
2023-04-05T04:02:23.047Z,100668.50
2023-04-05T04:07:24.482Z,100662.50
2023-04-05T04:12:25.858Z,100666.06
2023-04-05T04:17:28.490Z,100673.06
2023-04-05T04:22:33.040Z,100675.63
2023-04-05T04:27:35.575Z,100673.88
2023-04-05T04:32:53.340Z,100672.75
2023-04-05T04:38:20.266Z,100674.03
2023-04-05T04:43:27.124Z,100665.63
2023-04-05T04:48:28.496Z,100681.84
2023-04-05T04:53:29.882Z,100671.75
2023-04-05T04:58:31.258Z,100665.16
2023-04-05T05:03:34.279Z,100673.13
2023-04-05T05:08:37.099Z,100670.84
2023-04-05T05:13:38.503Z,100674.19
2023-04-05T05:18:41.523Z,100671.94
2023-04-05T05:23:42.931Z,100680.28
2023-04-05T05:28:45.787Z,100676.84
2023-04-05T05:33:49.808Z,100674.69
2023-04-05T05:38:52.480Z,100659.91
2023-04-05T05:43:54.050Z,100667.72
2023-04-05T05:48:55.472Z,100673.38
2023-04-05T05:53:56.846Z,100664.47
2023-04-05T05:58:59.425Z,100667.97
2023-04-05T06:04:01.263Z,100661.53
2023-04-05T06:09:02.947Z,100660.50
2023-04-05T06:14:04.321Z,100659.06
2023-04-05T06:19:06.107Z,100676.69
2023-04-05T06:24:07.472Z,100678.53
2023-04-05T06:29:08.853Z,100672.81
2023-04-05T06:34:10.395Z,100669.56
2023-04-05T06:39:11.848Z,100665.38
2023-04-05T06:44:13.215Z,100660.31
2023-04-05T06:49:14.635Z,100664.25
2023-04-05T06:54:16.087Z,100665.44
2023-04-05T06:59:17.535Z,100660.50
2023-04-05T07:04:19.003Z,100662.06
2023-04-05T07:09:21.162Z,100661.13
2023-04-05T07:14:22.777Z,100664.00
2023-04-05T07:19:24.190Z,100653.69
2023-04-05T07:24:25.664Z,100656.41
2023-04-05T07:29:27.060Z,100652.31
2023-04-05T07:34:28.452Z,100650.66
2023-04-05T07:39:30.003Z,100656.28
2023-04-05T07:44:31.379Z,100652.03
2023-04-05T07:49:33.532Z,100655.09
2023-04-05T07:54:35.664Z,100647.38
2023-04-05T07:59:37.119Z,100650.41
2023-04-05T08:04:38.607Z,100655.44
2023-04-05T08:09:40.205Z,100645.78
2023-04-05T08:14:41.674Z,100644.63
2023-04-05T08:19:43.117Z,100641.31
2023-04-05T08:24:44.773Z,100643.59
2023-04-05T08:29:46.237Z,100634.38
2023-04-05T08:34:47.608Z,100632.50
2023-04-05T08:39:48.976Z,100634.00
2023-04-05T08:44:52.225Z,100629.88
2023-04-05T08:49:53.679Z,100630.84
2023-04-05T08:54:55.989Z,100639.06
2023-04-05T08:59:57.468Z,100631.06
2023-04-05T09:04:58.854Z,100641.00
2023-04-05T09:10:00.488Z,100634.13
2023-04-05T09:15:01.865Z,100629.59
2023-04-05T09:20:03.307Z,100639.88
2023-04-05T09:25:04.868Z,100633.44
2023-04-05T09:30:10.574Z,100627.22
2023-04-05T09:35:19.221Z,100621.00
2023-04-05T09:40:20.918Z,100631.19
2023-04-05T09:45:22.602Z,100619.28
2023-04-05T09:50:24.067Z,100620.34
2023-04-05T09:55:26.658Z,100615.09
2023-04-05T10:00:28.966Z,100614.72
2023-04-05T10:05:32.388Z,100617.69
2023-04-05T10:10:33.788Z,100610.50
2023-04-05T10:15:35.417Z,100608.03
2023-04-05T10:20:39.773Z,100609.00
2023-04-05T10:25:53.958Z,100604.97
2023-04-05T10:31:02.882Z,100600.19
2023-04-05T10:36:13.161Z,100588.56
2023-04-05T10:41:14.687Z,100591.31
2023-04-05T10:46:19.618Z,100585.09
2023-04-05T10:51:24.154Z,100576.91
2023-04-05T10:56:25.923Z,100587.97
2023-04-05T11:01:27.738Z,100587.97
2023-04-05T11:06:29.020Z,100583.31
2023-04-05T11:11:32.363Z,100580.97
2023-04-05T11:16:40.189Z,100583.94
2023-04-05T11:21:41.725Z,100573.22
2023-04-05T11:26:42.926Z,100571.06
2023-04-05T11:32:00.459Z,100566.91
2023-04-05T11:37:01.850Z,100566.06
2023-04-05T11:42:04.088Z,100558.69
2023-04-05T11:47:06.155Z,100564.41
2023-04-05T11:52:18.122Z,100560.38
2023-04-05T11:57:21.171Z,100562.16
2023-04-05T12:02:22.845Z,100565.00
2023-04-05T12:07:26.342Z,100566.69
2023-04-05T12:12:27.991Z,100567.28
2023-04-05T12:17:39.654Z,100566.69
2023-04-05T12:22:42.086Z,100566.44
2023-04-05T12:27:43.593Z,100564.28
2023-04-05T12:32:45.506Z,100546.78
2023-04-05T12:37:47.209Z,100550.59
2023-04-05T12:42:48.595Z,100544.78
2023-04-05T12:47:56.891Z,100548.47
2023-04-05T12:52:59.631Z,100537.91
2023-04-05T12:58:01.500Z,100537.75
2023-04-05T13:03:03.057Z,100540.25
2023-04-05T13:08:04.580Z,100534.78
2023-04-05T13:13:06.101Z,100524.19
2023-04-05T13:18:07.600Z,100521.47
2023-04-05T13:23:11.028Z,100517.06
2023-04-05T13:28:12.423Z,100506.69
2023-04-05T13:33:13.818Z,100508.84
2023-04-05T13:38:15.393Z,100497.63
2023-04-05T13:43:16.796Z,100489.09
2023-04-05T13:48:18.202Z,100490.16
2023-04-05T13:53:19.593Z,100490.16
2023-04-05T13:58:20.970Z,100488.00
2023-04-05T14:03:22.493Z,100503.25
2023-04-05T14:08:23.957Z,100504.31
2023-04-05T14:13:25.384Z,100498.00
2023-04-05T14:18:27.051Z,100496.09
2023-04-05T14:23:29.542Z,100499.44
2023-04-05T14:28:30.942Z,100505.50
2023-04-05T14:33:32.312Z,100500.75
2023-04-05T14:38:33.720Z,100493.94
2023-04-05T14:43:35.487Z,100488.47
2023-04-05T14:48:37.391Z,100484.91
2023-04-05T14:53:38.781Z,100481.84
2023-04-05T14:58:40.207Z,100477.31
2023-04-05T15:03:41.839Z,100473.16
2023-04-05T15:08:43.332Z,100476.59
2023-04-05T15:13:44.726Z,100467.78
2023-04-05T15:18:47.245Z,100463.03
2023-04-05T15:23:48.697Z,100466.00
2023-04-05T15:28:50.079Z,100461.25
2023-04-05T15:33:51.463Z,100450.53
2023-04-05T15:38:52.858Z,100454.94
2023-04-05T15:43:54.274Z,100462.78
2023-04-05T15:48:56.063Z,100457.78
2023-04-05T15:53:57.450Z,100454.47
2023-04-05T15:58:58.992Z,100457.19
2023-04-05T16:04:00.864Z,100466.69
2023-04-05T16:09:02.750Z,100464.66
2023-04-05T16:14:04.398Z,100458.72
2023-04-05T16:19:07.295Z,100455.88
2023-04-05T16:24:08.738Z,100459.97
2023-04-05T16:29:10.127Z,100458.66
2023-04-05T16:34:11.625Z,100460.06
2023-04-05T16:39:13.164Z,100459.84
2023-04-05T16:44:14.548Z,100465.06
2023-04-05T16:49:15.999Z,100454.94
2023-04-05T16:54:17.474Z,100464.34
2023-04-05T16:59:18.872Z,100461.13
2023-04-05T17:04:20.262Z,100462.94
2023-04-05T17:09:22.980Z,100463.06
2023-04-05T17:14:24.467Z,100466.47
2023-04-05T17:19:25.994Z,100471.31
2023-04-05T17:24:27.427Z,100465.72
2023-04-05T17:29:28.824Z,100470.94
2023-04-05T17:34:30.204Z,100469.78
2023-04-05T17:39:31.592Z,100477.06
2023-04-05T17:44:33.058Z,100476.69
2023-04-05T17:49:36.260Z,100479.97
2023-04-05T17:54:38.250Z,100479.25
2023-04-05T17:59:39.733Z,100481.66
2023-04-05T18:04:41.606Z,100492.03
2023-04-05T18:09:42.997Z,100491.41
2023-04-05T18:14:44.613Z,100492.81
2023-04-05T18:19:47.355Z,100505.50
2023-04-05T18:24:48.784Z,100505.66
2023-04-05T18:29:50.366Z,100507.22
2023-04-05T18:34:52.090Z,100516.84
2023-04-05T18:39:53.466Z,100516.13
2023-04-05T18:44:54.872Z,100529.25
2023-04-05T18:49:56.346Z,100521.69
2023-04-05T18:54:58.465Z,100528.97
2023-04-05T19:00:00.991Z,100536.25
2023-04-05T19:05:02.460Z,100530.41
2023-04-05T19:10:04.414Z,100530.09
2023-04-05T19:15:06.321Z,100528.91
2023-04-05T19:20:08.234Z,100536.78
2023-04-05T19:25:09.792Z,100541.09
2023-04-05T19:30:11.345Z,100539.66
2023-04-05T19:35:13.050Z,100542.13
2023-04-05T19:40:14.452Z,100542.94
2023-04-05T19:45:23.647Z,100540.56
2023-04-05T19:50:40.071Z,100541.31
2023-04-05T19:55:41.474Z,100541.31
2023-04-05T20:00:52.829Z,100546.03
2023-04-05T20:05:58.632Z,100544.47
2023-04-05T20:11:00.045Z,100537.69
2023-04-05T20:16:01.507Z,100540.09
2023-04-05T20:21:02.896Z,100538.00
2023-04-05T20:26:05.947Z,100530.72
2023-04-05T20:31:17.646Z,100525.56
2023-04-05T20:36:23.760Z,100533.91
2023-04-05T20:41:25.374Z,100529.31
2023-04-05T20:46:27.613Z,100519.47
2023-04-05T20:51:29.083Z,100520.59
2023-04-05T20:56:30.478Z,100514.63
2023-04-05T21:01:31.937Z,100515.38
2023-04-05T21:06:36.329Z,100511.72
2023-04-05T21:11:38.087Z,100505.78
2023-04-05T21:16:39.463Z,100508.22
2023-04-05T21:21:40.834Z,100513.19
2023-04-05T21:26:42.237Z,100503.22
2023-04-05T21:31:43.622Z,100509.81
2023-04-05T21:36:45.051Z,100499.72
2023-04-05T21:41:46.431Z,100491.00
2023-04-05T21:46:47.862Z,100496.56
2023-04-05T21:51:49.316Z,100493.84
2023-04-05T21:56:50.846Z,100489.72
2023-04-05T22:01:52.264Z,100481.88
2023-04-05T22:06:53.771Z,100482.59
2023-04-05T22:11:55.149Z,100486.13
2023-04-05T22:16:57.688Z,100481.63
2023-04-05T22:21:59.147Z,100484.84
2023-04-05T22:27:00.682Z,100483.69
2023-04-05T22:32:02.154Z,100482.97
2023-04-05T22:37:03.627Z,100475.78
2023-04-05T22:42:05.037Z,100473.16
2023-04-05T22:47:06.426Z,100470.13
2023-04-05T22:52:07.828Z,100477.88
2023-04-05T22:57:11.462Z,100479.59
2023-04-05T23:02:13.091Z,100480.56
2023-04-05T23:07:14.474Z,100476.75
2023-04-05T23:12:16.322Z,100469.03
2023-04-05T23:17:17.779Z,100471.56
2023-04-05T23:22:19.171Z,100477.13
2023-04-05T23:27:21.495Z,100470.56
2023-04-05T23:32:23.039Z,100469.84
2023-04-05T23:37:24.545Z,100467.88
2023-04-05T23:42:26.115Z,100468.00
2023-04-05T23:47:27.626Z,100475.09
2023-04-05T23:52:29.066Z,100471.38
2023-04-05T23:57:30.542Z,100466.06
